Terminal Aerodrome Forecast
Issued by NWS

Home | Current Version | Previous Version | Graphics & Text | Print | Product List | Glossary On
Versions: 1 2 3 4 5 6 7 8 9 10 11 12 13 14 15 16 17 18 19 20 21 22 23 24 25
000
FTUS43 KMPX 302200 AAA
TAFRWF
TAF AMD
KRWF 302224Z 3022/0118 14015G20KT P6SM VCSH SCT030 BKN080
      TEMPO 3022/3024 6SM SHRA BR BKN030
     FM010400 15012KT 6SM BR OVC009
     FM010800 15009KT 2SM BR OVC003
     FM011600 20008KT P6SM OVC007=

USA.gov is the U.S. government's official web portal to all federal, state and local government web resources and services.